createdAt,value
2023-05-02T00:00:39.388Z,101451.34
2023-05-02T00:03:05.810Z,101454.16
2023-05-02T00:05:33.063Z,101448.25
2023-05-02T00:07:59.414Z,101447.47
2023-05-02T00:10:25.715Z,101447.06
2023-05-02T00:12:52.113Z,101446.38
2023-05-02T00:15:18.504Z,101444.00
2023-05-02T00:17:44.881Z,101441.28
2023-05-02T00:20:11.242Z,101450.22
2023-05-02T00:22:37.697Z,101450.13
2023-05-02T00:25:04.055Z,101447.72
2023-05-02T00:27:30.400Z,101439.19
2023-05-02T00:29:56.832Z,101437.31
2023-05-02T00:32:23.396Z,101437.00
2023-05-02T00:34:49.843Z,101434.59
2023-05-02T00:37:16.206Z,101435.38
2023-05-02T00:39:42.579Z,101431.44
2023-05-02T00:42:08.959Z,101423.78
2023-05-02T00:44:35.314Z,101430.69
2023-05-02T00:47:01.633Z,101431.88
2023-05-02T00:49:28.006Z,101439.75
2023-05-02T00:51:54.376Z,101433.19
2023-05-02T00:54:20.765Z,101433.09
2023-05-02T00:56:47.137Z,101436.66
2023-05-02T00:59:13.463Z,101440.94
2023-05-02T01:01:39.788Z,101441.28
2023-05-02T01:04:06.315Z,101440.16
2023-05-02T01:06:32.730Z,101443.66
2023-05-02T01:08:59.052Z,101439.84
2023-05-02T01:11:25.353Z,101436.25
2023-05-02T01:13:51.802Z,101442.88
2023-05-02T01:16:18.153Z,101441.38
2023-05-02T01:18:44.540Z,101438.31
2023-05-02T01:21:10.909Z,101444.44
2023-05-02T01:23:37.289Z,101442.31
2023-05-02T01:26:03.605Z,101446.94
2023-05-02T01:28:29.896Z,101445.06
2023-05-02T01:30:56.201Z,101436.34
2023-05-02T01:33:22.556Z,101445.63
2023-05-02T01:35:48.918Z,101449.56
2023-05-02T01:38:15.279Z,101452.31
2023-05-02T01:40:41.598Z,101449.66
2023-05-02T01:43:07.901Z,101453.81
2023-05-02T01:45:34.213Z,101450.31
2023-05-02T01:48:00.562Z,101445.63
2023-05-02T01:50:26.938Z,101448.81
2023-05-02T01:52:53.282Z,101444.22
2023-05-02T01:55:19.677Z,101444.94
2023-05-02T01:57:46.039Z,101438.31
2023-05-02T02:00:12.426Z,101435.16
2023-05-02T02:02:38.740Z,101435.25
2023-05-02T02:05:05.116Z,101434.47
2023-05-02T02:07:31.542Z,101435.25
2023-05-02T02:09:57.988Z,101431.75
2023-05-02T02:12:24.490Z,101431.66
2023-05-02T02:14:50.820Z,101447.34
2023-05-02T02:17:17.160Z,101445.72
2023-05-02T02:19:43.524Z,101459.06
2023-05-02T02:22:09.847Z,101459.06
2023-05-02T02:24:36.197Z,101455.13
2023-05-02T02:27:02.581Z,101460.25
2023-05-02T02:29:28.970Z,101456.41
2023-05-02T02:31:55.317Z,101451.19
2023-05-02T02:34:21.640Z,101461.34
2023-05-02T02:36:48.030Z,101457.59
2023-05-02T02:39:14.398Z,101462.97
2023-05-02T02:41:40.763Z,101466.47
2023-05-02T02:44:07.068Z,101473.13
2023-05-02T02:46:33.451Z,101463.84
2023-05-02T02:48:59.823Z,101470.84
2023-05-02T02:51:26.187Z,101469.63
2023-05-02T02:53:52.643Z,101470.41
2023-05-02T02:56:19.011Z,101472.03
2023-05-02T02:58:45.320Z,101466.16
2023-05-02T03:01:11.704Z,101472.03
2023-05-02T03:03:38.141Z,101470.84
2023-05-02T03:06:04.577Z,101463.84
2023-05-02T03:08:31.007Z,101474.34
2023-05-02T03:10:57.340Z,101471.50
2023-05-02T03:13:23.667Z,101473.13
2023-05-02T03:15:50.042Z,101473.56
2023-05-02T03:18:16.999Z,101471.94
2023-05-02T03:20:43.462Z,101477.06
2023-05-02T03:23:09.887Z,101481.75
2023-05-02T03:25:36.186Z,101469.63
2023-05-02T03:28:02.530Z,101477.91
2023-05-02T03:30:28.835Z,101477.91
2023-05-02T03:32:55.207Z,101481.41
2023-05-02T03:35:21.558Z,101481.94
2023-05-02T03:37:47.883Z,101486.00
2023-05-02T03:40:14.283Z,101495.84
2023-05-02T03:42:40.581Z,101490.81
2023-05-02T03:45:06.890Z,101492.34
2023-05-02T03:47:33.332Z,101490.03
2023-05-02T03:50:00.144Z,101484.13
2023-05-02T03:52:26.733Z,101492.69
2023-05-02T03:54:53.089Z,101486.19
2023-05-02T03:57:19.550Z,101493.56
2023-05-02T03:59:45.858Z,101484.13
2023-05-02T04:02:12.246Z,101487.63
2023-05-02T04:04:38.782Z,101494.19
2023-05-02T04:07:05.260Z,101485.47
2023-05-02T04:09:31.653Z,101482.94
2023-05-02T04:11:58.014Z,101480.84
2023-05-02T04:14:24.326Z,101484.34
2023-05-02T04:16:50.789Z,101486.56
2023-05-02T04:19:17.179Z,101488.19
2023-05-02T04:21:43.534Z,101494.84
2023-05-02T04:24:09.919Z,101499.09
2023-05-02T04:26:36.281Z,101496.47
2023-05-02T04:29:02.605Z,101496.03
2023-05-02T04:31:28.982Z,101501.56
2023-05-02T04:33:55.427Z,101506.63
2023-05-02T04:36:21.735Z,101509.34
2023-05-02T04:38:48.051Z,101510.53
2023-05-02T04:41:14.415Z,101519.81
2023-05-02T04:43:40.767Z,101524.97
2023-05-02T04:46:07.116Z,101532.28
2023-05-02T04:48:33.488Z,101530.75
2023-05-02T04:50:59.829Z,101529.97
2023-05-02T04:53:26.140Z,101532.59
2023-05-02T04:55:52.511Z,101527.16
2023-05-02T04:58:18.867Z,101538.16
2023-05-02T05:00:45.208Z,101539.63
2023-05-02T05:03:11.696Z,101533.91
2023-05-02T05:05:38.150Z,101534.16
2023-05-02T05:08:04.612Z,101536.66
2023-05-02T05:10:31.004Z,101543.88
2023-05-02T05:12:57.360Z,101543.19
2023-05-02T05:15:23.678Z,101557.53
2023-05-02T05:17:50.136Z,101549.66
2023-05-02T05:20:16.504Z,101550.63
2023-05-02T05:22:42.997Z,101560.78
2023-05-02T05:25:09.312Z,101567.44
2023-05-02T05:27:35.629Z,101558.81
2023-05-02T05:30:02.077Z,101574.25
2023-05-02T05:32:28.786Z,101573.47
2023-05-02T05:34:55.125Z,101573.47
2023-05-02T05:37:21.418Z,101577.94
2023-05-02T05:39:47.739Z,101583.75
2023-05-02T05:42:14.100Z,101575.19
2023-05-02T05:44:40.481Z,101591.16
2023-05-02T05:47:06.967Z,101589.03
2023-05-02T05:49:33.440Z,101592.50
2023-05-02T05:51:59.756Z,101593.25
2023-05-02T05:54:26.142Z,101603.78
2023-05-02T05:56:52.456Z,101601.03
2023-05-02T05:59:18.754Z,101604.28
2023-05-02T06:01:45.097Z,101603.78
2023-05-02T06:04:11.554Z,101615.97
2023-05-02T06:06:38.004Z,101621.00
2023-05-02T06:09:04.381Z,101615.19
2023-05-02T06:11:30.706Z,101619.81
2023-05-02T06:13:57.062Z,101621.59
2023-05-02T06:16:23.425Z,101632.28
2023-05-02T06:18:49.792Z,101628.00
2023-05-02T06:21:16.083Z,101629.63
2023-05-02T06:23:42.465Z,101627.56
2023-05-02T06:26:08.805Z,101635.44
2023-05-02T06:28:35.135Z,101634.31
2023-05-02T06:31:01.610Z,101635.53
2023-05-02T06:33:28.031Z,101635.94
2023-05-02T06:35:55.429Z,101638.19
2023-05-02T06:38:21.789Z,101638.19
2023-05-02T06:40:48.154Z,101645.59
2023-05-02T06:43:14.524Z,101647.03
2023-05-02T06:45:40.865Z,101647.47
2023-05-02T06:48:07.337Z,101649.50
2023-05-02T06:50:33.720Z,101654.19
2023-05-02T06:53:00.018Z,101649.84
2023-05-02T06:55:26.339Z,101651.66
2023-05-02T06:57:52.713Z,101644.19
2023-05-02T07:00:19.203Z,101646.84
2023-05-02T07:02:45.597Z,101656.34
2023-05-02T07:05:12.008Z,101657.84
2023-05-02T07:07:38.358Z,101658.31
2023-05-02T07:10:04.720Z,101665.31
2023-05-02T07:12:31.072Z,101663.66
2023-05-02T07:14:57.375Z,101661.44
2023-05-02T07:17:23.783Z,101659.13
2023-05-02T07:19:50.199Z,101662.13
2023-05-02T07:22:16.521Z,101651.63
2023-05-02T07:24:42.868Z,101651.91
2023-05-02T07:27:09.221Z,101650.63
2023-05-02T07:29:35.588Z,101650.09
2023-05-02T07:32:02.040Z,101654.69
2023-05-02T07:34:28.508Z,101656.47
2023-05-02T07:36:54.863Z,101652.69
2023-05-02T07:39:21.244Z,101664.94
2023-05-02T07:41:47.605Z,101667.16
2023-05-02T07:44:13.941Z,101668.69
2023-05-02T07:46:40.427Z,101668.25
2023-05-02T07:49:06.908Z,101674.81
2023-05-02T07:51:33.221Z,101673.00
2023-05-02T07:53:59.548Z,101676.84
2023-05-02T07:56:25.874Z,101673.03
2023-05-02T07:58:52.180Z,101673.56
2023-05-02T08:01:18.554Z,101677.28
2023-05-02T08:03:45.059Z,101678.72
2023-05-02T08:06:11.562Z,101677.50
2023-05-02T08:08:37.932Z,101683.19
2023-05-02T08:11:04.356Z,101688.44
2023-05-02T08:13:30.796Z,101691.66
2023-05-02T08:15:57.190Z,101689.88
2023-05-02T08:18:23.648Z,101695.69
2023-05-02T08:20:49.957Z,101698.88
2023-05-02T08:23:16.333Z,101705.88
2023-05-02T08:25:42.676Z,101696.44
2023-05-02T08:28:09.002Z,101698.53
2023-05-02T08:30:35.352Z,101695.91
2023-05-02T08:33:01.776Z,101695.94
2023-05-02T08:35:28.126Z,101698.09
2023-05-02T08:37:54.501Z,101700.53
2023-05-02T08:40:30.376Z,101695.59
2023-05-02T08:43:04.387Z,101702.72
2023-05-02T08:45:30.754Z,101703.38
2023-05-02T08:47:57.138Z,101700.00
2023-05-02T08:50:23.509Z,101710.06
2023-05-02T08:52:49.806Z,101707.03
2023-05-02T08:55:16.161Z,101715.00
2023-05-02T08:57:42.474Z,101721.88
2023-05-02T09:00:08.784Z,101723.22
2023-05-02T09:02:35.149Z,101710.94
2023-05-02T09:05:01.740Z,101714.66
2023-05-02T09:07:28.527Z,101705.25
2023-05-02T09:09:54.833Z,101708.34
2023-05-02T09:12:21.139Z,101722.56
2023-05-02T09:14:47.483Z,101709.84
2023-05-02T09:17:13.846Z,101730.13
2023-05-02T09:19:40.296Z,101734.63
2023-05-02T09:22:06.655Z,101734.63
2023-05-02T09:24:32.973Z,101735.94
2023-05-02T09:26:59.316Z,101747.88
2023-05-02T09:29:25.650Z,101749.63
2023-05-02T09:31:56.021Z,101754.66
2023-05-02T09:34:22.853Z,101757.94
2023-05-02T09:36:49.218Z,101755.44
2023-05-02T09:39:15.534Z,101756.09
2023-05-02T09:41:41.891Z,101756.63
2023-05-02T09:44:08.339Z,101767.94
2023-05-02T09:46:34.766Z,101763.66
2023-05-02T09:49:01.152Z,101761.00
2023-05-02T09:51:27.493Z,101762.78
2023-05-02T09:53:53.806Z,101752.59
2023-05-02T09:56:20.133Z,101761.16
2023-05-02T09:58:46.489Z,101762.09
2023-05-02T10:01:12.974Z,101763.66
2023-05-02T10:03:39.379Z,101764.91
2023-05-02T10:06:05.835Z,101761.56
2023-05-02T10:08:32.222Z,101763.50
2023-05-02T10:10:58.544Z,101766.84
2023-05-02T10:13:24.862Z,101758.69
2023-05-02T10:15:51.265Z,101752.88
2023-05-02T10:18:17.722Z,101753.03
2023-05-02T10:20:44.126Z,101760.22
2023-05-02T10:23:10.453Z,101754.66
2023-05-02T10:25:36.759Z,101756.75
2023-05-02T10:28:03.082Z,101756.31
2023-05-02T10:30:29.423Z,101758.53
2023-05-02T10:32:55.779Z,101756.91
2023-05-02T10:35:22.221Z,101756.38
2023-05-02T10:37:48.530Z,101757.59
2023-05-02T10:40:14.924Z,101768.13
2023-05-02T10:42:41.292Z,101758.03
2023-05-02T10:45:07.609Z,101765.47
2023-05-02T10:47:34.004Z,101767.59
2023-05-02T10:50:00.386Z,101768.31
2023-05-02T10:52:26.762Z,101770.81
2023-05-02T10:54:53.078Z,101770.41
2023-05-02T10:57:19.383Z,101767.56
2023-05-02T10:59:45.750Z,101767.66
2023-05-02T11:02:12.174Z,101763.94
2023-05-02T11:04:38.569Z,101764.25
2023-05-02T11:07:04.897Z,101763.28
2023-05-02T11:09:31.320Z,101765.56
2023-05-02T11:11:57.693Z,101766.09
2023-05-02T11:14:24.079Z,101759.19
2023-05-02T11:16:50.448Z,101756.81
2023-05-02T11:19:16.840Z,101761.06
2023-05-02T11:21:43.140Z,101755.78
2023-05-02T11:24:09.570Z,101754.16
2023-05-02T11:26:35.878Z,101760.06
2023-05-02T11:29:02.223Z,101758.72
2023-05-02T11:31:28.677Z,101766.63
2023-05-02T11:33:55.050Z,101768.59
2023-05-02T11:36:21.356Z,101771.78
2023-05-02T11:38:47.675Z,101771.78
2023-05-02T11:41:14.033Z,101765.06
2023-05-02T11:43:40.358Z,101761.03
2023-05-02T11:46:06.750Z,101758.81
2023-05-02T11:48:33.074Z,101761.34
2023-05-02T11:50:59.429Z,101771.09
2023-05-02T11:53:25.795Z,101771.53
2023-05-02T11:55:52.184Z,101763.41
2023-05-02T11:58:18.509Z,101765.13
2023-05-02T12:00:44.930Z,101760.53
2023-05-02T12:03:11.357Z,101761.22
2023-05-02T12:05:37.849Z,101760.34
2023-05-02T12:08:04.252Z,101771.81
2023-05-02T12:10:30.609Z,101766.03
2023-05-02T12:12:56.940Z,101774.13
2023-05-02T12:15:23.249Z,101776.19
2023-05-02T12:17:49.572Z,101772.25
2023-05-02T12:20:15.939Z,101773.34
2023-05-02T12:22:42.290Z,101785.50
2023-05-02T12:25:08.659Z,101782.25
2023-05-02T12:27:35.090Z,101781.97
2023-05-02T12:30:01.686Z,101778.72
2023-05-02T12:32:28.320Z,101789.31
2023-05-02T12:34:54.710Z,101786.69
2023-05-02T12:37:21.040Z,101793.38
2023-05-02T12:39:47.378Z,101795.00
2023-05-02T12:42:13.700Z,101797.53
2023-05-02T12:44:40.108Z,101796.69
2023-05-02T12:47:06.566Z,101802.59
2023-05-02T12:49:32.957Z,101814.53
2023-05-02T12:51:59.354Z,101813.84
2023-05-02T12:54:25.670Z,101815.75
2023-05-02T12:56:52.014Z,101811.13
2023-05-02T12:59:18.353Z,101805.75
2023-05-02T13:01:44.707Z,101808.91
2023-05-02T13:04:11.089Z,101807.53
2023-05-02T13:06:37.716Z,101813.94
2023-05-02T13:09:04.243Z,101811.97
2023-05-02T13:11:30.587Z,101809.25
2023-05-02T13:13:56.923Z,101808.06
2023-05-02T13:16:23.314Z,101811.88
2023-05-02T13:18:49.803Z,101809.69
2023-05-02T13:21:16.226Z,101812.63
2023-05-02T13:23:42.617Z,101813.63
2023-05-02T13:26:08.970Z,101815.69
2023-05-02T13:28:35.323Z,101813.28
2023-05-02T13:31:01.772Z,101812.94
2023-05-02T13:33:28.150Z,101810.47
2023-05-02T13:35:54.474Z,101813.19
2023-05-02T13:38:20.840Z,101816.78
2023-05-02T13:40:47.145Z,101809.69
2023-05-02T13:43:13.464Z,101810.47
2023-05-02T13:45:39.934Z,101814.72
2023-05-02T13:48:06.327Z,101814.28
2023-05-02T13:50:32.755Z,101814.72
2023-05-02T13:52:59.121Z,101810.78
2023-05-02T13:55:25.672Z,101813.63
2023-05-02T13:57:52.107Z,101822.94
2023-05-02T14:00:18.462Z,101816.78
2023-05-02T14:02:44.850Z,101816.78
2023-05-02T14:05:11.268Z,101807.47
2023-05-02T14:07:37.648Z,101806.59
2023-05-02T14:10:04.334Z,101808.66
2023-05-02T14:12:31.051Z,101805.19
2023-05-02T14:14:57.388Z,101804.22
2023-05-02T14:17:23.746Z,101802.00
2023-05-02T14:19:50.070Z,101802.44
2023-05-02T14:22:16.387Z,101800.38
2023-05-02T14:24:42.719Z,101790.63
2023-05-02T14:27:09.038Z,101788.78
2023-05-02T14:29:35.389Z,101791.13
2023-05-02T14:32:01.819Z,101785.59
2023-05-02T14:34:28.254Z,101793.47
2023-05-02T14:36:54.587Z,101781.75
2023-05-02T14:39:20.892Z,101780.88
2023-05-02T14:41:47.249Z,101778.16
2023-05-02T14:44:13.628Z,101771.03
2023-05-02T14:46:40.066Z,101755.75
2023-05-02T14:49:06.554Z,101759.00
2023-05-02T14:51:32.907Z,101753.94
2023-05-02T14:53:59.238Z,101753.22
2023-05-02T14:56:25.548Z,101751.13
2023-05-02T14:58:51.916Z,101750.28
2023-05-02T15:01:18.294Z,101751.31
2023-05-02T15:04:03.341Z,101741.13
2023-05-02T15:06:31.105Z,101734.13
2023-05-02T15:08:57.521Z,101727.88
2023-05-02T15:11:23.900Z,101725.25
2023-05-02T15:13:50.439Z,101728.66
2023-05-02T15:16:16.883Z,101721.31
2023-05-02T15:18:43.252Z,101722.06
2023-05-02T15:21:09.660Z,101715.84
2023-05-02T15:23:35.981Z,101717.72
2023-05-02T15:26:02.276Z,101718.75
2023-05-02T15:28:28.771Z,101723.19
2023-05-02T15:30:55.154Z,101720.56
2023-05-02T15:33:21.518Z,101721.31
2023-05-02T15:35:47.998Z,101714.72
2023-05-02T15:38:14.335Z,101720.00
2023-05-02T15:40:40.694Z,101719.69
2023-05-02T15:43:07.070Z,101705.56
2023-05-02T15:45:33.443Z,101711.13
2023-05-02T15:47:59.918Z,101703.28
2023-05-02T15:50:26.292Z,101715.41
2023-05-02T15:52:52.673Z,101714.53
2023-05-02T15:55:19.037Z,101711.56
2023-05-02T15:57:45.452Z,101714.53
2023-05-02T16:00:11.816Z,101715.22
2023-05-02T16:02:38.206Z,101712.19
2023-05-02T16:05:04.803Z,101706.25
2023-05-02T16:07:31.114Z,101701.88
2023-05-02T16:09:57.444Z,101698.81
2023-05-02T16:12:23.769Z,101704.72
2023-05-02T16:14:50.078Z,101696.25
2023-05-02T16:17:16.418Z,101698.94
2023-05-02T16:19:42.766Z,101697.19
2023-05-02T16:22:09.244Z,101695.56
2023-05-02T16:24:35.654Z,101689.53
2023-05-02T16:27:02.012Z,101677.94
2023-05-02T16:29:28.379Z,101686.91
2023-05-02T16:31:54.774Z,101680.66
2023-05-02T16:34:21.137Z,101675.19
2023-05-02T16:36:47.521Z,101672.03
2023-05-02T16:39:13.887Z,101673.22
2023-05-02T16:41:40.207Z,101674.00
2023-05-02T16:44:06.529Z,101673.00
2023-05-02T16:46:32.905Z,101680.00
2023-05-02T16:48:59.263Z,101677.81
2023-05-02T16:51:25.566Z,101682.38
2023-05-02T16:53:51.951Z,101684.63
2023-05-02T16:56:18.315Z,101674.97
2023-05-02T16:58:44.684Z,101677.50
2023-05-02T17:01:11.090Z,101674.41
2023-05-02T17:03:37.492Z,101677.06
2023-05-02T17:06:03.871Z,101674.97
2023-05-02T17:08:30.195Z,101666.97
2023-05-02T17:10:56.570Z,101680.34
2023-05-02T17:13:22.941Z,101675.53
2023-05-02T17:15:49.344Z,101683.66
2023-05-02T17:18:16.023Z,101677.81
2023-05-02T17:20:42.450Z,101687.16
2023-05-02T17:23:08.776Z,101683.09
2023-05-02T17:25:35.083Z,101676.31
2023-05-02T17:28:01.453Z,101679.59
2023-05-02T17:30:27.817Z,101680.91
2023-05-02T17:32:54.264Z,101665.78
2023-05-02T17:35:20.701Z,101668.72
2023-05-02T17:37:47.044Z,101669.94
2023-05-02T17:40:13.402Z,101669.25
2023-05-02T17:42:39.716Z,101678.19
2023-05-02T17:45:06.064Z,101676.03
2023-05-02T17:47:32.383Z,101686.50
2023-05-02T17:49:58.726Z,101681.59
2023-05-02T17:52:25.077Z,101686.19
2023-05-02T17:54:51.452Z,101692.06
2023-05-02T17:57:17.843Z,101688.59
2023-05-02T17:59:44.195Z,101688.81
2023-05-02T18:02:10.611Z,101694.22
2023-05-02T18:04:36.962Z,101695.38
2023-05-02T18:07:05.745Z,101696.59
2023-05-02T18:09:32.634Z,101699.25
2023-05-02T18:11:58.986Z,101701.56
2023-05-02T18:14:25.335Z,101708.22
2023-05-02T18:16:51.696Z,101705.66
2023-05-02T18:19:18.004Z,101702.06
2023-05-02T18:21:44.394Z,101709.50
2023-05-02T18:24:10.750Z,101702.81
2023-05-02T18:26:37.118Z,101713.97
2023-05-02T18:29:03.496Z,101714.63
2023-05-02T18:31:29.913Z,101717.38
2023-05-02T18:33:56.326Z,101714.31
2023-05-02T18:36:22.673Z,101716.28
2023-05-02T18:38:49.039Z,101708.50
2023-05-02T18:41:15.416Z,101713.13
2023-05-02T18:43:41.739Z,101720.31
2023-05-02T18:46:08.175Z,101726.91
2023-05-02T18:48:34.530Z,101716.38
2023-05-02T18:51:00.890Z,101721.53
2023-05-02T18:53:27.313Z,101718.78
2023-05-02T18:55:53.629Z,101722.81
2023-05-02T18:58:20.014Z,101723.47
2023-05-02T19:00:46.457Z,101720.75
2023-05-02T19:03:12.999Z,101724.56
2023-05-02T19:05:39.462Z,101733.75
2023-05-02T19:08:05.778Z,101732.56
2023-05-02T19:10:32.410Z,101736.91
2023-05-02T19:12:58.731Z,101738.03
2023-05-02T19:15:25.109Z,101740.09
2023-05-02T19:17:51.534Z,101744.34
2023-05-02T19:20:17.906Z,101736.03
2023-05-02T19:22:44.235Z,101741.69
2023-05-02T19:25:10.569Z,101736.56
2023-05-02T19:27:36.870Z,101744.00
2023-05-02T19:30:03.217Z,101736.91
2023-05-02T19:32:29.646Z,101738.22
2023-05-02T19:34:56.005Z,101738.53
2023-05-02T19:37:22.328Z,101744.69
2023-05-02T19:39:48.680Z,101738.22
2023-05-02T19:42:15.003Z,101744.78
2023-05-02T19:44:41.339Z,101753.41
2023-05-02T19:47:07.661Z,101746.41
2023-05-02T19:49:34.016Z,101753.50
2023-05-02T19:52:00.368Z,101757.44
2023-05-02T19:54:26.698Z,101765.13
2023-05-02T19:56:53.056Z,101767.53
2023-05-02T19:59:19.423Z,101762.06
2023-05-02T20:01:45.838Z,101771.03
2023-05-02T20:04:12.214Z,101760.28
2023-05-02T20:06:38.636Z,101762.91
2023-05-02T20:09:05.029Z,101764.09
2023-05-02T20:11:31.496Z,101766.84
2023-05-02T20:13:57.860Z,101759.84
2023-05-02T20:16:24.229Z,101770.00
2023-05-02T20:18:50.631Z,101775.47
2023-05-02T20:21:16.986Z,101773.84
2023-05-02T20:23:43.378Z,101780.59
2023-05-02T20:26:09.893Z,101773.09
2023-05-02T20:28:36.253Z,101777.78
2023-05-02T20:31:02.690Z,101774.69
2023-05-02T20:33:43.861Z,101780.94
2023-05-02T20:36:11.904Z,101780.84
2023-05-02T20:38:38.198Z,101784.88
2023-05-02T20:41:04.533Z,101788.81
2023-05-02T20:43:30.842Z,101789.91
2023-05-02T20:45:57.226Z,101787.94
2023-05-02T20:48:23.627Z,101775.47
2023-05-02T20:50:49.988Z,101793.50
2023-05-02T20:53:16.454Z,101786.41
2023-05-02T20:55:42.755Z,101787.19
2023-05-02T20:58:09.107Z,101802.13
2023-05-02T21:00:35.465Z,101802.91
2023-05-02T21:03:01.944Z,101805.22
2023-05-02T21:05:28.355Z,101800.53
2023-05-02T21:07:54.699Z,101809.91
2023-05-02T21:10:21.039Z,101805.31
2023-05-02T21:12:47.363Z,101804.13
2023-05-02T21:15:13.663Z,101813.06
2023-05-02T21:17:40.082Z,101805.31
2023-05-02T21:20:06.705Z,101811.53
2023-05-02T21:22:33.319Z,101805.72
2023-05-02T21:24:59.680Z,101796.31
2023-05-02T21:27:26.077Z,101799.84
2023-05-02T21:29:52.451Z,101803.44
2023-05-02T21:32:18.846Z,101810.00
2023-05-02T21:34:45.162Z,101809.66
2023-05-02T21:37:11.520Z,101807.75
2023-05-02T21:39:37.876Z,101819.84
2023-05-02T21:42:04.237Z,101806.94
2023-05-02T21:44:30.554Z,101804.63
2023-05-02T21:46:56.923Z,101805.41
2023-05-02T21:49:23.244Z,101812.81
2023-05-02T21:51:49.557Z,101817.09
2023-05-02T21:54:15.866Z,101820.25
2023-05-02T21:56:42.210Z,101817.88
2023-05-02T21:59:08.547Z,101813.69
2023-05-02T22:01:34.928Z,101819.91
2023-05-02T22:04:01.295Z,101816.09
2023-05-02T22:06:27.744Z,101810.94
2023-05-02T22:08:54.205Z,101819.16
2023-05-02T22:11:20.515Z,101817.59
2023-05-02T22:13:46.836Z,101815.63
2023-05-02T22:16:13.224Z,101814.88
2023-05-02T22:18:39.547Z,101818.69
2023-05-02T22:21:05.852Z,101803.53
2023-05-02T22:23:32.252Z,101808.97
2023-05-02T22:25:58.570Z,101809.31
2023-05-02T22:28:24.938Z,101801.19
2023-05-02T22:30:51.247Z,101803.16
2023-05-02T22:33:17.606Z,101807.88
2023-05-02T22:35:43.935Z,101801.66
2023-05-02T22:38:10.290Z,101805.56
2023-05-02T22:40:36.674Z,101805.66
2023-05-02T22:43:03.041Z,101809.50
2023-05-02T22:45:29.348Z,101802.84
2023-05-02T22:47:55.787Z,101814.19
2023-05-02T22:50:22.179Z,101812.31
2023-05-02T22:52:48.561Z,101806.06
2023-05-02T22:55:14.924Z,101806.06
2023-05-02T22:57:41.252Z,101801.72
2023-05-02T23:00:07.726Z,101801.38
2023-05-02T23:02:34.105Z,101798.66
2023-05-02T23:05:00.497Z,101794.03
2023-05-02T23:07:26.828Z,101806.94
2023-05-02T23:09:53.204Z,101795.91
2023-05-02T23:12:19.525Z,101800.28
2023-05-02T23:14:45.876Z,101787.81
2023-05-02T23:17:12.211Z,101787.72
2023-05-02T23:19:38.586Z,101792.75
2023-05-02T23:22:04.944Z,101786.53
2023-05-02T23:24:31.312Z,101782.69
2023-05-02T23:26:57.714Z,101771.31
2023-05-02T23:29:24.019Z,101770.53
2023-05-02T23:31:50.415Z,101763.88
2023-05-02T23:34:16.851Z,101764.31
2023-05-02T23:36:43.206Z,101753.81
2023-05-02T23:39:09.563Z,101751.94
2023-05-02T23:41:35.922Z,101755.34
2023-05-02T23:44:02.284Z,101751.50
2023-05-02T23:46:28.690Z,101746.72
2023-05-02T23:48:55.035Z,101750.22
2023-05-02T23:51:21.341Z,101745.63
2023-05-02T23:53:47.721Z,101746.47
2023-05-02T23:56:14.033Z,101749.22
2023-05-02T23:58:40.377Z,101751.94
